sensor_id;sensor_type;location;lat;lon;timestamp;pressure;altitude;pressure_sealevel;temperature;humidity
17855;BME280;9053;53.358;6.382;2022-10-31T00:02:02;101917.88;;;14.76;100.00
17855;BME280;9053;53.358;6.382;2022-10-31T00:04:31;101914.25;;;14.74;100.00
17855;BME280;9053;53.358;6.382;2022-10-31T00:07:04;101921.25;;;14.71;100.00
17855;BME280;9053;53.358;6.382;2022-10-31T00:09:33;101926.44;;;14.68;100.00
17855;BME280;9053;53.358;6.382;2022-10-31T00:12:03;101933.50;;;14.68;100.00
17855;BME280;9053;53.358;6.382;2022-10-31T00:14:33;101937.84;;;14.66;100.00
17855;BME280;9053;53.358;6.382;2022-10-31T00:17:03;101938.63;;;14.63;100.00
17855;BME280;9053;53.358;6.382;2022-10-31T00:19:33;101941.25;;;14.62;100.00
17855;BME280;9053;53.358;6.382;2022-10-31T00:22:05;101943.75;;;14.59;100.00
17855;BME280;9053;53.358;6.382;2022-10-31T00:24:35;101951.66;;;14.57;100.00
17855;BME280;9053;53.358;6.382;2022-10-31T00:27:04;101951.56;;;14.54;100.00
17855;BME280;9053;53.358;6.382;2022-10-31T00:29:34;101944.44;;;14.53;100.00
17855;BME280;9053;53.358;6.382;2022-10-31T00:32:04;101950.56;;;14.52;100.00
17855;BME280;9053;53.358;6.382;2022-10-31T00:34:34;101945.19;;;14.49;100.00
17855;BME280;9053;53.358;6.382;2022-10-31T00:37:06;101946.88;;;14.47;100.00
17855;BME280;9053;53.358;6.382;2022-10-31T00:39:35;101951.19;;;14.45;100.00
17855;BME280;9053;53.358;6.382;2022-10-31T00:42:05;101952.00;;;14.42;100.00
17855;BME280;9053;53.358;6.382;2022-10-31T00:44:35;101950.13;;;14.40;100.00
17855;BME280;9053;53.358;6.382;2022-10-31T00:47:05;101950.03;;;14.37;100.00
17855;BME280;9053;53.358;6.382;2022-10-31T00:49:34;101954.34;;;14.35;100.00
17855;BME280;9053;53.358;6.382;2022-10-31T00:52:07;101949.91;;;14.34;100.00
17855;BME280;9053;53.358;6.382;2022-10-31T00:54:36;101959.56;;;14.32;100.00
17855;BME280;9053;53.358;6.382;2022-10-31T00:57:06;101961.16;;;14.28;100.00
17855;BME280;9053;53.358;6.382;2022-10-31T00:59:36;101958.47;;;14.26;100.00
17855;BME280;9053;53.358;6.382;2022-10-31T01:02:05;101972.50;;;14.24;100.00
17855;BME280;9053;53.358;6.382;2022-10-31T01:04:35;101965.38;;;14.23;100.00
17855;BME280;9053;53.358;6.382;2022-10-31T01:07:08;101963.59;;;14.22;100.00
17855;BME280;9053;53.358;6.382;2022-10-31T01:09:38;101965.34;;;14.21;100.00
17855;BME280;9053;53.358;6.382;2022-10-31T01:12:08;101965.34;;;14.21;100.00
17855;BME280;9053;53.358;6.382;2022-10-31T01:14:38;101964.38;;;14.19;100.00
17855;BME280;9053;53.358;6.382;2022-10-31T01:17:07;101969.59;;;14.18;100.00
17855;BME280;9053;53.358;6.382;2022-10-31T01:19:37;101966.94;;;14.16;100.00
17855;BME280;9053;53.358;6.382;2022-10-31T01:22:10;101974.78;;;14.15;100.00
17855;BME280;9053;53.358;6.382;2022-10-31T01:24:39;101982.66;;;14.13;100.00
17855;BME280;9053;53.358;6.382;2022-10-31T01:27:09;101973.78;;;14.11;100.00
17855;BME280;9053;53.358;6.382;2022-10-31T01:29:39;101977.25;;;14.10;100.00
17855;BME280;9053;53.358;6.382;2022-10-31T01:32:08;101972.69;;;14.06;100.00
17855;BME280;9053;53.358;6.382;2022-10-31T01:34:38;101974.34;;;14.02;100.00
17855;BME280;9053;53.358;6.382;2022-10-31T01:37:10;101969.75;;;13.98;100.00
17855;BME280;9053;53.358;6.382;2022-10-31T01:39:40;101970.53;;;13.96;100.00
17855;BME280;9053;53.358;6.382;2022-10-31T01:42:17;101977.53;;;13.94;100.00
17855;BME280;9053;53.358;6.382;2022-10-31T01:44:54;101980.19;;;13.94;100.00
17855;BME280;9053;53.358;6.382;2022-10-31T01:47:32;101976.59;;;13.92;100.00
17855;BME280;9053;53.358;6.382;2022-10-31T01:50:06;101979.22;;;13.92;100.00
17855;BME280;9053;53.358;6.382;2022-10-31T01:52:43;101977.41;;;13.91;100.00
17855;BME280;9053;53.358;6.382;2022-10-31T01:55:16;101966.78;;;13.89;100.00
17855;BME280;9053;53.358;6.382;2022-10-31T01:57:52;101963.19;;;13.87;100.00
17855;BME280;9053;53.358;6.382;2022-10-31T02:00:24;101964.03;;;13.86;100.00
17855;BME280;9053;53.358;6.382;2022-10-31T02:02:54;101962.22;;;13.85;100.00
17855;BME280;9053;53.358;6.382;2022-10-31T02:05:28;101965.63;;;13.82;100.00
17855;BME280;9053;53.358;6.382;2022-10-31T02:08:04;101962.09;;;13.82;100.00
17855;BME280;9053;53.358;6.382;2022-10-31T02:10:36;101965.53;;;13.79;100.00
17855;BME280;9053;53.358;6.382;2022-10-31T02:13:07;101969.03;;;13.78;100.00
17855;BME280;9053;53.358;6.382;2022-10-31T02:15:38;101978.63;;;13.76;100.00
17855;BME280;9053;53.358;6.382;2022-10-31T02:18:08;101976.88;;;13.77;100.00
17855;BME280;9053;53.358;6.382;2022-10-31T02:20:44;101973.28;;;13.75;100.00
17855;BME280;9053;53.358;6.382;2022-10-31T02:26:35;101964.38;;;13.73;100.00
17855;BME280;9053;53.358;6.382;2022-10-31T02:29:31;101972.28;;;13.71;100.00
17855;BME280;9053;53.358;6.382;2022-10-31T02:32:13;101965.13;;;13.69;100.00
17855;BME280;9053;53.358;6.382;2022-10-31T02:34:52;101968.53;;;13.66;100.00
17855;BME280;9053;53.358;6.382;2022-10-31T02:37:31;101972.00;;;13.65;100.00
17855;BME280;9053;53.358;6.382;2022-10-31T02:40:11;101964.88;;;13.62;100.00
17855;BME280;9053;53.358;6.382;2022-10-31T02:42:50;101968.28;;;13.60;100.00
17855;BME280;9053;53.358;6.382;2022-10-31T02:45:25;101968.28;;;13.60;100.00
17855;BME280;9053;53.358;6.382;2022-10-31T02:48:05;101959.38;;;13.58;100.00
17855;BME280;9053;53.358;6.382;2022-10-31T02:50:40;101961.13;;;13.57;100.00
17855;BME280;9053;53.358;6.382;2022-10-31T02:53:14;101956.75;;;13.58;100.00
17855;BME280;9053;53.358;6.382;2022-10-31T02:55:56;101956.75;;;13.58;100.00
17855;BME280;9053;53.358;6.382;2022-10-31T02:58:29;101952.31;;;13.57;100.00
17855;BME280;9053;53.358;6.382;2022-10-31T03:01:17;101952.31;;;13.57;100.00
17855;BME280;9053;53.358;6.382;2022-10-31T03:07:03;101954.97;;;13.57;100.00
17855;BME280;9053;53.358;6.382;2022-10-31T03:09:43;101956.63;;;13.55;100.00
17855;BME280;9053;53.358;6.382;2022-10-31T03:12:21;101960.94;;;13.53;100.00
17855;BME280;9053;53.358;6.382;2022-10-31T03:15:02;101964.44;;;13.52;100.00
17855;BME280;9053;53.358;6.382;2022-10-31T03:17:38;101960.84;;;13.50;100.00
17855;BME280;9053;53.358;6.382;2022-10-31T03:20:11;101957.22;;;13.48;100.00
17855;BME280;9053;53.358;6.382;2022-10-31T03:22:44;101957.22;;;13.48;100.00
17855;BME280;9053;53.358;6.382;2022-10-31T03:25:15;101957.19;;;13.46;100.00
17855;BME280;9053;53.358;6.382;2022-10-31T03:27:46;101964.22;;;13.46;100.00
17855;BME280;9053;53.358;6.382;2022-10-31T03:30:17;101963.25;;;13.44;100.00
17855;BME280;9053;53.358;6.382;2022-10-31T03:32:49;101969.34;;;13.42;100.00
17855;BME280;9053;53.358;6.382;2022-10-31T03:35:23;101972.84;;;13.41;100.00
17855;BME280;9053;53.358;6.382;2022-10-31T03:37:58;101973.75;;;13.42;100.00
17855;BME280;9053;53.358;6.382;2022-10-31T03:40:35;101971.03;;;13.40;100.00
17855;BME280;9053;53.358;6.382;2022-10-31T03:43:10;101969.25;;;13.39;100.00
17855;BME280;9053;53.358;6.382;2022-10-31T03:45:45;101974.41;;;13.36;100.00
17855;BME280;9053;53.358;6.382;2022-10-31T03:48:16;101971.69;;;13.35;100.00
17855;BME280;9053;53.358;6.382;2022-10-31T03:51:04;101976.00;;;13.33;100.00
17855;BME280;9053;53.358;6.382;2022-10-31T03:53:43;101971.38;;;13.27;100.00
17855;BME280;9053;53.358;6.382;2022-10-31T03:56:19;101970.25;;;13.22;100.00
17855;BME280;9053;53.358;6.382;2022-10-31T03:58:57;101981.47;;;13.16;100.00
17855;BME280;9053;53.358;6.382;2022-10-31T04:01:27;101983.94;;;13.12;100.00
17855;BME280;9053;53.358;6.382;2022-10-31T04:04:00;101980.19;;;13.07;100.00
17855;BME280;9053;53.358;6.382;2022-10-31T04:06:31;101979.03;;;13.00;100.00
17855;BME280;9053;53.358;6.382;2022-10-31T04:09:06;101982.31;;;12.94;100.00
17855;BME280;9053;53.358;6.382;2022-10-31T04:11:43;101989.13;;;12.89;100.00
17855;BME280;9053;53.358;6.382;2022-10-31T04:14:15;101983.75;;;12.86;100.00
17855;BME280;9053;53.358;6.382;2022-10-31T04:16:45;101983.63;;;12.83;100.00
17855;BME280;9053;53.358;6.382;2022-10-31T04:19:15;101980.84;;;12.80;100.00
17855;BME280;9053;53.358;6.382;2022-10-31T04:21:45;101979.78;;;12.76;100.00
17855;BME280;9053;53.358;6.382;2022-10-31T04:24:17;101978.78;;;12.73;100.00
17855;BME280;9053;53.358;6.382;2022-10-31T04:26:47;101978.63;;;12.70;100.00
17855;BME280;9053;53.358;6.382;2022-10-31T04:29:17;101982.09;;;12.69;100.00
17855;BME280;9053;53.358;6.382;2022-10-31T04:31:47;101987.25;;;12.66;100.00
17855;BME280;9053;53.358;6.382;2022-10-31T04:34:16;101991.56;;;12.64;100.00
17855;BME280;9053;53.358;6.382;2022-10-31T04:36:46;101985.31;;;12.62;100.00
17855;BME280;9053;53.358;6.382;2022-10-31T04:39:18;101982.63;;;12.60;100.00
17855;BME280;9053;53.358;6.382;2022-10-31T04:41:52;101986.03;;;12.58;100.00
17855;BME280;9053;53.358;6.382;2022-10-31T04:44:22;101988.59;;;12.56;100.00
17855;BME280;9053;53.358;6.382;2022-10-31T04:46:51;101984.09;;;12.53;100.00
17855;BME280;9053;53.358;6.382;2022-10-31T04:49:21;101987.50;;;12.51;100.00
17855;BME280;9053;53.358;6.382;2022-10-31T04:51:51;101994.44;;;12.49;100.00
17855;BME280;9053;53.358;6.382;2022-10-31T04:54:23;101990.81;;;12.47;100.00
17855;BME280;9053;53.358;6.382;2022-10-31T04:56:53;101984.59;;;12.45;100.00
17855;BME280;9053;53.358;6.382;2022-10-31T04:59:23;101984.50;;;12.43;100.00
17855;BME280;9053;53.358;6.382;2022-10-31T05:01:52;101984.50;;;12.43;100.00
17855;BME280;9053;53.358;6.382;2022-10-31T05:04:22;101974.78;;;12.42;100.00
17855;BME280;9053;53.358;6.382;2022-10-31T05:06:52;101970.34;;;12.41;100.00
17855;BME280;9053;53.358;6.382;2022-10-31T05:09:24;101973.84;;;12.40;100.00
17855;BME280;9053;53.358;6.382;2022-10-31T05:11:54;101969.44;;;12.41;100.00
17855;BME280;9053;53.358;6.382;2022-10-31T05:14:24;101985.28;;;12.41;100.00
17855;BME280;9053;53.358;6.382;2022-10-31T05:16:53;101975.53;;;12.40;100.00
17855;BME280;9053;53.358;6.382;2022-10-31T05:19:23;101978.19;;;12.40;100.00
17855;BME280;9053;53.358;6.382;2022-10-31T05:21:53;101976.38;;;12.39;100.00
17855;BME280;9053;53.358;6.382;2022-10-31T05:24:25;101980.78;;;12.38;100.00
17855;BME280;9053;53.358;6.382;2022-10-31T05:26:55;101975.38;;;12.35;100.00
17855;BME280;9053;53.358;6.382;2022-10-31T05:29:24;101975.19;;;12.32;100.00
17855;BME280;9053;53.358;6.382;2022-10-31T05:31:54;101975.16;;;12.30;100.00
17855;BME280;9053;53.358;6.382;2022-10-31T05:34:24;101974.94;;;12.26;100.00
17855;BME280;9053;53.358;6.382;2022-10-31T05:36:54;101973.16;;;12.25;100.00
17855;BME280;9053;53.358;6.382;2022-10-31T05:39:26;101973.84;;;12.21;100.00
17855;BME280;9053;53.358;6.382;2022-10-31T05:41:56;101978.13;;;12.19;100.00
17855;BME280;9053;53.358;6.382;2022-10-31T05:44:25;101978.00;;;12.16;100.00
17855;BME280;9053;53.358;6.382;2022-10-31T05:46:55;101978.75;;;12.13;100.00
17855;BME280;9053;53.358;6.382;2022-10-31T05:49:25;101983.94;;;12.11;100.00
17855;BME280;9053;53.358;6.382;2022-10-31T05:51:54;101989.19;;;12.10;100.00
17855;BME280;9053;53.358;6.382;2022-10-31T05:54:27;101991.72;;;12.08;100.00
17855;BME280;9053;53.358;6.382;2022-10-31T05:56:57;101997.75;;;12.06;100.00
17855;BME280;9053;53.358;6.382;2022-10-31T05:59:26;101994.16;;;12.04;100.00
17855;BME280;9053;53.358;6.382;2022-10-31T06:01:56;101981.72;;;12.01;100.00
17855;BME280;9053;53.358;6.382;2022-10-31T06:04:26;101982.44;;;11.97;100.00
17855;BME280;9053;53.358;6.382;2022-10-31T06:06:56;101982.28;;;11.94;100.00
17855;BME280;9053;53.358;6.382;2022-10-31T06:09:29;101985.63;;;11.90;100.00
17855;BME280;9053;53.358;6.382;2022-10-31T06:11:58;101991.66;;;11.87;100.00
17855;BME280;9053;53.358;6.382;2022-10-31T06:14:28;101988.88;;;11.86;100.00
17855;BME280;9053;53.358;6.382;2022-10-31T06:16:58;101983.50;;;11.83;100.00
17855;BME280;9053;53.358;6.382;2022-10-31T06:19:27;101986.13;;;11.83;100.00
17855;BME280;9053;53.358;6.382;2022-10-31T06:21:57;101987.84;;;11.82;100.00
17855;BME280;9053;53.358;6.382;2022-10-31T06:24:29;101979.88;;;11.81;100.00
17855;BME280;9053;53.358;6.382;2022-10-31T06:26:59;101984.16;;;11.79;100.00
17855;BME280;9053;53.358;6.382;2022-10-31T06:29:29;101986.78;;;11.79;100.00
17855;BME280;9053;53.358;6.382;2022-10-31T06:31:59;101990.28;;;11.78;100.00
17855;BME280;9053;53.358;6.382;2022-10-31T06:34:29;101993.72;;;11.77;100.00
17855;BME280;9053;53.358;6.382;2022-10-31T06:36:59;101991.03;;;11.75;100.00
17855;BME280;9053;53.358;6.382;2022-10-31T06:39:31;101994.56;;;11.76;100.00
17855;BME280;9053;53.358;6.382;2022-10-31T06:42:01;101991.94;;;11.76;100.00
17855;BME280;9053;53.358;6.382;2022-10-31T06:44:31;101995.41;;;11.75;100.00
17855;BME280;9053;53.358;6.382;2022-10-31T06:47:01;101988.31;;;11.74;100.00
17855;BME280;9053;53.358;6.382;2022-10-31T06:49:31;101990.94;;;11.74;100.00
17855;BME280;9053;53.358;6.382;2022-10-31T06:52:00;101981.25;;;11.73;100.00
17855;BME280;9053;53.358;6.382;2022-10-31T06:54:33;101985.75;;;11.75;100.00
17855;BME280;9053;53.358;6.382;2022-10-31T06:57:02;101990.13;;;11.75;100.00
17855;BME280;9053;53.358;6.382;2022-10-31T06:59:32;101991.94;;;11.76;100.00
17855;BME280;9053;53.358;6.382;2022-10-31T07:02:02;101985.75;;;11.75;100.00
17855;BME280;9053;53.358;6.382;2022-10-31T07:04:32;101990.28;;;11.78;100.00
17855;BME280;9053;53.358;6.382;2022-10-31T07:07:02;101993.81;;;11.78;100.00
17855;BME280;9053;53.358;6.382;2022-10-31T07:09:34;101994.69;;;11.79;100.00
17855;BME280;9053;53.358;6.382;2022-10-31T07:12:04;101997.41;;;11.80;100.00
17855;BME280;9053;53.358;6.382;2022-10-31T07:14:34;101993.88;;;11.80;100.00
17855;BME280;9053;53.358;6.382;2022-10-31T07:17:04;101992.25;;;11.82;100.00
17855;BME280;9053;53.358;6.382;2022-10-31T07:19:33;101988.66;;;11.81;100.00
17855;BME280;9053;53.358;6.382;2022-10-31T07:22:03;101994.03;;;11.83;100.00
17855;BME280;9053;53.358;6.382;2022-10-31T07:24:35;101997.66;;;11.85;100.00
17855;BME280;9053;53.358;6.382;2022-10-31T07:27:05;101992.47;;;11.86;100.00
17855;BME280;9053;53.358;6.382;2022-10-31T07:29:35;101996.97;;;11.89;100.00
17855;BME280;9053;53.358;6.382;2022-10-31T07:32:05;101995.31;;;11.91;100.00
17855;BME280;9053;53.358;6.382;2022-10-31T07:34:34;102000.91;;;11.97;100.00
17855;BME280;9053;53.358;6.382;2022-10-31T07:37:12;101994.78;;;11.98;100.00
17855;BME280;9053;53.358;6.382;2022-10-31T07:39:44;101997.53;;;12.01;100.00
17855;BME280;9053;53.358;6.382;2022-10-31T07:42:14;101999.50;;;12.05;100.00
17855;BME280;9053;53.358;6.382;2022-10-31T07:44:44;102003.16;;;12.09;100.00
17855;BME280;9053;53.358;6.382;2022-10-31T07:47:18;101995.47;;;12.13;100.00
17855;BME280;9053;53.358;6.382;2022-10-31T07:49:47;102001.81;;;12.17;100.00
17855;BME280;9053;53.358;6.382;2022-10-31T07:52:17;102004.63;;;12.22;100.00
17855;BME280;9053;53.358;6.382;2022-10-31T07:54:50;102004.81;;;12.25;100.00
17855;BME280;9053;53.358;6.382;2022-10-31T07:57:19;102005.81;;;12.28;100.00
17855;BME280;9053;53.358;6.382;2022-10-31T07:59:50;101999.03;;;12.33;100.00
17855;BME280;9053;53.358;6.382;2022-10-31T08:02:20;102006.25;;;12.38;100.00
17855;BME280;9053;53.358;6.382;2022-10-31T08:04:50;102009.06;;;12.42;100.00
17855;BME280;9053;53.358;6.382;2022-10-31T08:07:26;102014.56;;;12.47;100.00
17855;BME280;9053;53.358;6.382;2022-10-31T08:09:58;102017.38;;;12.50;100.00
17855;BME280;9053;53.358;6.382;2022-10-31T08:12:28;102021.03;;;12.53;100.00
17855;BME280;9053;53.358;6.382;2022-10-31T08:14:57;102018.50;;;12.56;100.00
17855;BME280;9053;53.358;6.382;2022-10-31T08:17:28;102008.09;;;12.60;100.00
17855;BME280;9053;53.358;6.382;2022-10-31T08:19:58;102013.56;;;12.64;100.00
17855;BME280;9053;53.358;6.382;2022-10-31T08:22:28;102023.56;;;12.71;100.00
17855;BME280;9053;53.358;6.382;2022-10-31T08:25:01;102026.41;;;12.76;100.00
17855;BME280;9053;53.358;6.382;2022-10-31T08:27:30;102031.94;;;12.82;100.00
17855;BME280;9053;53.358;6.382;2022-10-31T08:30:00;102033.13;;;12.89;100.00
17855;BME280;9053;53.358;6.382;2022-10-31T08:32:30;102036.94;;;12.95;100.00
17855;BME280;9053;53.358;6.382;2022-10-31T08:35:00;102028.38;;;13.01;100.00
17855;BME280;9053;53.358;6.382;2022-10-31T08:37:29;102028.59;;;13.06;100.00
17855;BME280;9053;53.358;6.382;2022-10-31T08:40:02;102032.25;;;13.09;100.00
17855;BME280;9053;53.358;6.382;2022-10-31T08:42:33;102020.91;;;13.12;100.00
17855;BME280;9053;53.358;6.382;2022-10-31T08:45:03;102023.75;;;13.16;100.00
17855;BME280;9053;53.358;6.382;2022-10-31T08:47:33;102028.25;;;13.19;100.00
17855;BME280;9053;53.358;6.382;2022-10-31T08:50:04;102028.38;;;13.22;100.00
17855;BME280;9053;53.358;6.382;2022-10-31T08:52:33;102031.25;;;13.27;100.00
17855;BME280;9053;53.358;6.382;2022-10-31T08:55:26;102026.09;;;13.30;100.00
17855;BME280;9053;53.358;6.382;2022-10-31T08:57:57;102026.28;;;13.34;100.00
17855;BME280;9053;53.358;6.382;2022-10-31T09:00:27;102023.75;;;13.37;100.00
17855;BME280;9053;53.358;6.382;2022-10-31T09:02:57;102020.41;;;13.41;100.00
17855;BME280;9053;53.358;6.382;2022-10-31T09:05:28;102023.13;;;13.43;100.00
17855;BME280;9053;53.358;6.382;2022-10-31T09:07:59;102025.81;;;13.45;100.00
17855;BME280;9053;53.358;6.382;2022-10-31T09:10:36;102026.78;;;13.47;100.00
17855;BME280;9053;53.358;6.382;2022-10-31T09:13:08;102018.97;;;13.50;100.00
17855;BME280;9053;53.358;6.382;2022-10-31T09:15:40;102018.19;;;13.52;100.00
17855;BME280;9053;53.358;6.382;2022-10-31T09:18:11;102013.97;;;13.56;100.00
17855;BME280;9053;53.358;6.382;2022-10-31T09:20:42;102013.22;;;13.60;100.00
17855;BME280;9053;53.358;6.382;2022-10-31T09:23:14;102002.75;;;13.63;100.00
17855;BME280;9053;53.358;6.382;2022-10-31T09:25:49;102002.94;;;13.68;100.00
17855;BME280;9053;53.358;6.382;2022-10-31T09:28:21;102011.94;;;13.71;100.00
17855;BME280;9053;53.358;6.382;2022-10-31T09:30:52;102007.56;;;13.73;100.00
17855;BME280;9053;53.358;6.382;2022-10-31T09:33:22;102013.91;;;13.77;100.00
17855;BME280;9053;53.358;6.382;2022-10-31T09:35:52;102011.38;;;13.80;100.00
17855;BME280;9053;53.358;6.382;2022-10-31T09:38:22;102009.78;;;13.83;100.00
17855;BME280;9053;53.358;6.382;2022-10-31T09:41:06;102008.97;;;13.86;100.00
17855;BME280;9053;53.358;6.382;2022-10-31T09:43:49;102007.22;;;13.87;100.00
17855;BME280;9053;53.358;6.382;2022-10-31T09:46:29;102004.63;;;13.88;100.00
17855;BME280;9053;53.358;6.382;2022-10-31T09:49:28;102009.22;;;13.92;100.00
17855;BME280;9053;53.358;6.382;2022-10-31T09:52:05;102000.41;;;13.93;100.00
17855;BME280;9053;53.358;6.382;2022-10-31T09:54:44;102006.69;;;13.95;100.00
17855;BME280;9053;53.358;6.382;2022-10-31T09:57:22;102005.97;;;13.99;100.00
17855;BME280;9053;53.358;6.382;2022-10-31T09:59:54;102000.66;;;13.99;100.00
17855;BME280;9053;53.358;6.382;2022-10-31T10:02:29;102004.28;;;14.01;100.00
17855;BME280;9053;53.358;6.382;2022-10-31T10:05:02;102009.69;;;14.04;100.00
17855;BME280;9053;53.358;6.382;2022-10-31T10:07:40;102003.72;;;14.10;100.00
17855;BME280;9053;53.358;6.382;2022-10-31T10:10:16;101986.16;;;14.12;100.00
17855;BME280;9053;53.358;6.382;2022-10-31T10:13:12;101989.00;;;14.17;100.00
17855;BME280;9053;53.358;6.382;2022-10-31T10:15:56;101997.94;;;14.20;100.00
17855;BME280;9053;53.358;6.382;2022-10-31T10:18:37;101991.91;;;14.24;100.00
17855;BME280;9053;53.358;6.382;2022-10-31T10:21:22;101996.47;;;14.28;100.00
17855;BME280;9053;53.358;6.382;2022-10-31T10:24:05;101997.59;;;14.35;100.00
17855;BME280;9053;53.358;6.382;2022-10-31T10:26:43;102001.25;;;14.39;100.00
17855;BME280;9053;53.358;6.382;2022-10-31T10:29:30;102005.88;;;14.44;100.00
17855;BME280;9053;53.358;6.382;2022-10-31T10:32:08;102000.63;;;14.46;100.00
17855;BME280;9053;53.358;6.382;2022-10-31T10:34:44;101999.03;;;14.51;100.00
17855;BME280;9053;53.358;6.382;2022-10-31T10:37:24;101987.78;;;14.55;100.00
17855;BME280;9053;53.358;6.382;2022-10-31T10:40:01;101980.88;;;14.60;100.00
17855;BME280;9053;53.358;6.382;2022-10-31T10:42:35;101981.94;;;14.65;100.00
17855;BME280;9053;53.358;6.382;2022-10-31T10:45:20;101972.41;;;14.70;100.00
17855;BME280;9053;53.358;6.382;2022-10-31T10:48:08;101979.63;;;14.75;100.00
17855;BME280;9053;53.358;6.382;2022-10-31T10:50:44;101981.53;;;14.79;100.00
17855;BME280;9053;53.358;6.382;2022-10-31T10:53:28;101978.16;;;14.83;100.00
17855;BME280;9053;53.358;6.382;2022-10-31T10:56:11;101972.06;;;14.85;100.00
17855;BME280;9053;53.358;6.382;2022-10-31T10:58:45;101973.81;;;14.85;100.00
17855;BME280;9053;53.358;6.382;2022-10-31T11:01:18;101964.28;;;14.90;100.00
17855;BME280;9053;53.358;6.382;2022-10-31T11:03:47;101964.47;;;14.96;100.00
17855;BME280;9053;53.358;6.382;2022-10-31T11:06:18;101960.19;;;15.00;100.00
17855;BME280;9053;53.358;6.382;2022-10-31T11:08:52;101961.09;;;15.00;100.00
17855;BME280;9053;53.358;6.382;2022-10-31T11:11:25;101962.06;;;15.04;100.00
17855;BME280;9053;53.358;6.382;2022-10-31T11:14:00;101959.59;;;15.08;100.00
17855;BME280;9053;53.358;6.382;2022-10-31T11:16:37;101957.03;;;15.11;100.00
17855;BME280;9053;53.358;6.382;2022-10-31T11:19:13;101948.34;;;15.15;100.00
17855;BME280;9053;53.358;6.382;2022-10-31T11:21:44;101949.38;;;15.21;100.00
17855;BME280;9053;53.358;6.382;2022-10-31T11:24:21;101946.00;;;15.25;100.00
17855;BME280;9053;53.358;6.382;2022-10-31T11:27:09;101940.00;;;15.32;100.00
17855;BME280;9053;53.358;6.382;2022-10-31T11:29:41;101935.72;;;15.35;100.00
17855;BME280;9053;53.358;6.382;2022-10-31T11:32:20;101927.06;;;15.41;100.00
17855;BME280;9053;53.358;6.382;2022-10-31T11:34:52;101923.66;;;15.45;100.00
17855;BME280;9053;53.358;6.382;2022-10-31T11:37:25;101916.69;;;15.49;100.00
17855;BME280;9053;53.358;6.382;2022-10-31T11:39:56;101911.53;;;15.53;100.00
17855;BME280;9053;53.358;6.382;2022-10-31T11:42:29;101906.31;;;15.56;100.00
17855;BME280;9053;53.358;6.382;2022-10-31T11:45:13;101904.63;;;15.58;100.00
17855;BME280;9053;53.358;6.382;2022-10-31T11:47:49;101899.41;;;15.62;100.00
17855;BME280;9053;53.358;6.382;2022-10-31T11:50:28;101887.00;;;15.61;100.00
17855;BME280;9053;53.358;6.382;2022-10-31T11:53:00;101887.97;;;15.63;100.00
17855;BME280;9053;53.358;6.382;2022-10-31T11:55:32;101889.66;;;15.61;100.00
17855;BME280;9053;53.358;6.382;2022-10-31T11:58:03;101894.97;;;15.61;100.00
17855;BME280;9053;53.358;6.382;2022-10-31T12:00:37;101896.75;;;15.62;100.00
17855;BME280;9053;53.358;6.382;2022-10-31T12:03:20;101888.78;;;15.62;100.00
17855;BME280;9053;53.358;6.382;2022-10-31T12:05:56;101879.88;;;15.59;100.00
17855;BME280;9053;53.358;6.382;2022-10-31T12:08:30;101870.22;;;15.60;100.00
17855;BME280;9053;53.358;6.382;2022-10-31T12:11:07;101863.97;;;15.59;100.00
17855;BME280;9053;53.358;6.382;2022-10-31T12:13:50;101865.75;;;15.59;100.00
17855;BME280;9053;53.358;6.382;2022-10-31T12:16:31;101868.38;;;15.59;100.00
17855;BME280;9053;53.358;6.382;2022-10-31T12:19:14;101859.59;;;15.60;100.00
17855;BME280;9053;53.358;6.382;2022-10-31T12:22:02;101856.97;;;15.62;100.00
17855;BME280;9053;53.358;6.382;2022-10-31T12:25:02;101855.19;;;15.61;100.00
17855;BME280;9053;53.358;6.382;2022-10-31T12:27:51;101852.53;;;15.61;100.00
17855;BME280;9053;53.358;6.382;2022-10-31T12:30:28;101851.66;;;15.62;100.00
17855;BME280;9053;53.358;6.382;2022-10-31T12:33:26;101840.25;;;15.64;100.00
17855;BME280;9053;53.358;6.382;2022-10-31T12:36:15;101831.34;;;15.62;100.00
17855;BME280;9053;53.358;6.382;2022-10-31T12:41:46;101831.41;;;15.64;100.00
17855;BME280;9053;53.358;6.382;2022-10-31T12:44:31;101825.34;;;15.68;100.00
17855;BME280;9053;53.358;6.382;2022-10-31T12:47:24;101821.94;;;15.72;100.00
17855;BME280;9053;53.358;6.382;2022-10-31T12:50:06;101806.16;;;15.75;100.00
17855;BME280;9053;53.358;6.382;2022-10-31T12:52:49;101800.03;;;15.79;100.00
17855;BME280;9053;53.358;6.382;2022-10-31T12:55:35;101793.84;;;15.78;100.00
17855;BME280;9053;53.358;6.382;2022-10-31T12:58:10;101784.19;;;15.81;100.00
17855;BME280;9053;53.358;6.382;2022-10-31T13:00:44;101772.75;;;15.83;100.00
17855;BME280;9053;53.358;6.382;2022-10-31T13:03:23;101757.78;;;15.85;100.00
17855;BME280;9053;53.358;6.382;2022-10-31T13:05:58;101757.00;;;15.89;100.00
17855;BME280;9053;53.358;6.382;2022-10-31T13:08:38;101757.06;;;15.92;100.00
17855;BME280;9053;53.358;6.382;2022-10-31T13:11:11;101753.59;;;15.93;100.00
17855;BME280;9053;53.358;6.382;2022-10-31T13:13:53;101750.88;;;15.92;100.00
17855;BME280;9053;53.358;6.382;2022-10-31T13:16:28;101742.91;;;15.92;100.00
17855;BME280;9053;53.358;6.382;2022-10-31T13:19:02;101736.78;;;15.93;100.00
17855;BME280;9053;53.358;6.382;2022-10-31T13:21:41;101734.13;;;15.94;100.00
17855;BME280;9053;53.358;6.382;2022-10-31T13:24:19;101719.22;;;15.98;100.00
17855;BME280;9053;53.358;6.382;2022-10-31T13:26:54;101716.59;;;15.99;100.00
17855;BME280;9053;53.358;6.382;2022-10-31T13:29:27;101727.19;;;15.99;100.00
17855;BME280;9053;53.358;6.382;2022-10-31T13:32:00;101729.00;;;16.00;100.00
17855;BME280;9053;53.358;6.382;2022-10-31T13:34:34;101729.97;;;16.04;100.00